CheckWX is a tool to help pilots better visualize weather data.  It is not intended as a substitute for an official pre-flight weather briefing.

12:41:06 UTC

KAND TAF
Anderson Regional Airport
Anderson, South Carolina, USA
KAND 271129Z 2712/2812 VRB02KT P6SM SCT180 FM271400 08007KT P6SM SCT060 SCT180 FM280000 VRB03KT P6SM FEW060 BKN200

Jun-27@
12:00 UTC

Jun-27 @ 12:00 UTC

Jun-27@
14:00 UTC

Jun-27 @ 14:00 UTC

KAND 271129Z 2712/2812 VRB02KT P6SM SCT180
Wind
  • Variable at 2 KTS
Cloud Levels
  • Scattered at 18,000' AGL

Jun-27@
14:00 UTC

Jun-27 @ 14:00 UTC

Jun-28@
00:00 UTC

Jun-28 @ 00:00 UTC

FM271400 08007KT P6SM SCT060 SCT180

From

From Standard forecast or significant change

Wind
  • 080° at 7 KTS
Cloud Levels
  • Scattered at 6,000' AGL
  • Scattered at 18,000' AGL

Jun-28@
00:00 UTC

Jun-28 @ 00:00 UTC

Jun-28@
12:00 UTC

Jun-28 @ 12:00 UTC

FM280000 VRB03KT P6SM FEW060 BKN200

From

From Standard forecast or significant change

Wind
  • Variable at 3 KTS
Cloud Levels
  • Few at 6,000' AGL
  • Broken at 20,000' AGL